sensor_id;sensor_type;location;lat;lon;timestamp;P1;durP1;ratioP1;P2;durP2;ratioP2
38972;SDS011;25333;50.762;4.470;2023-05-10T00:00:43;12.13;;;5.40;;
38972;SDS011;25333;50.762;4.470;2023-05-10T00:03:09;8.50;;;5.43;;
38972;SDS011;25333;50.762;4.470;2023-05-10T00:05:35;11.00;;;6.45;;
38972;SDS011;25333;50.762;4.470;2023-05-10T00:08:00;11.75;;;5.50;;
38972;SDS011;25333;50.762;4.470;2023-05-10T00:10:26;10.98;;;5.55;;
38972;SDS011;25333;50.762;4.470;2023-05-10T00:12:52;9.97;;;6.10;;
38972;SDS011;25333;50.762;4.470;2023-05-10T00:15:17;10.70;;;5.63;;
38972;SDS011;25333;50.762;4.470;2023-05-10T00:17:43;9.80;;;6.07;;
38972;SDS011;25333;50.762;4.470;2023-05-10T00:20:09;9.60;;;5.77;;
38972;SDS011;25333;50.762;4.470;2023-05-10T00:22:35;11.18;;;5.82;;
38972;SDS011;25333;50.762;4.470;2023-05-10T00:25:01;9.38;;;5.82;;
38972;SDS011;25333;50.762;4.470;2023-05-10T00:27:26;10.17;;;5.43;;
38972;SDS011;25333;50.762;4.470;2023-05-10T00:29:52;11.02;;;5.88;;
38972;SDS011;25333;50.762;4.470;2023-05-10T00:32:18;13.70;;;6.33;;
38972;SDS011;25333;50.762;4.470;2023-05-10T00:34:43;8.57;;;6.07;;
38972;SDS011;25333;50.762;4.470;2023-05-10T00:37:09;8.90;;;5.07;;
38972;SDS011;25333;50.762;4.470;2023-05-10T00:39:35;10.03;;;5.73;;
38972;SDS011;25333;50.762;4.470;2023-05-10T00:42:00;9.32;;;6.03;;
38972;SDS011;25333;50.762;4.470;2023-05-10T00:44:26;11.93;;;5.80;;
38972;SDS011;25333;50.762;4.470;2023-05-10T00:46:52;13.93;;;7.53;;
38972;SDS011;25333;50.762;4.470;2023-05-10T00:49:18;11.07;;;6.20;;
38972;SDS011;25333;50.762;4.470;2023-05-10T00:51:45;9.85;;;7.38;;
38972;SDS011;25333;50.762;4.470;2023-05-10T00:54:11;10.13;;;6.25;;
38972;SDS011;25333;50.762;4.470;2023-05-10T00:56:40;11.70;;;6.57;;
38972;SDS011;25333;50.762;4.470;2023-05-10T00:59:06;11.30;;;6.82;;
38972;SDS011;25333;50.762;4.470;2023-05-10T01:01:35;12.40;;;7.37;;
38972;SDS011;25333;50.762;4.470;2023-05-10T01:04:01;10.95;;;6.82;;
38972;SDS011;25333;50.762;4.470;2023-05-10T01:06:28;11.02;;;6.90;;
38972;SDS011;25333;50.762;4.470;2023-05-10T01:08:54;10.20;;;6.82;;
38972;SDS011;25333;50.762;4.470;2023-05-10T01:11:20;11.10;;;6.53;;
38972;SDS011;25333;50.762;4.470;2023-05-10T01:13:47;9.60;;;5.78;;
38972;SDS011;25333;50.762;4.470;2023-05-10T01:16:19;12.02;;;7.00;;
38972;SDS011;25333;50.762;4.470;2023-05-10T01:18:45;12.80;;;8.07;;
38972;SDS011;25333;50.762;4.470;2023-05-10T01:21:20;11.45;;;6.88;;
38972;SDS011;25333;50.762;4.470;2023-05-10T01:24:14;11.55;;;6.10;;
38972;SDS011;25333;50.762;4.470;2023-05-10T01:32:15;12.30;;;8.27;;
38972;SDS011;25333;50.762;4.470;2023-05-10T01:34:59;13.00;;;8.32;;
38972;SDS011;25333;50.762;4.470;2023-05-10T01:37:30;12.13;;;7.88;;
38972;SDS011;25333;50.762;4.470;2023-05-10T01:40:08;13.07;;;8.47;;
38972;SDS011;25333;50.762;4.470;2023-05-10T01:42:47;11.60;;;8.20;;
38972;SDS011;25333;50.762;4.470;2023-05-10T01:45:20;13.55;;;8.90;;
38972;SDS011;25333;50.762;4.470;2023-05-10T01:48:12;13.88;;;8.85;;
38972;SDS011;25333;50.762;4.470;2023-05-10T01:50:41;14.13;;;8.57;;
38972;SDS011;25333;50.762;4.470;2023-05-10T01:53:09;11.20;;;8.40;;
38972;SDS011;25333;50.762;4.470;2023-05-10T01:55:41;12.98;;;8.82;;
38972;SDS011;25333;50.762;4.470;2023-05-10T01:58:15;12.82;;;9.02;;
38972;SDS011;25333;50.762;4.470;2023-05-10T02:00:45;15.13;;;9.90;;
38972;SDS011;25333;50.762;4.470;2023-05-10T02:03:14;13.95;;;9.63;;
38972;SDS011;25333;50.762;4.470;2023-05-10T02:05:41;13.43;;;9.50;;
38972;SDS011;25333;50.762;4.470;2023-05-10T02:08:10;14.30;;;8.98;;
38972;SDS011;25333;50.762;4.470;2023-05-10T02:10:36;16.67;;;9.85;;
38972;SDS011;25333;50.762;4.470;2023-05-10T02:13:04;20.17;;;10.55;;
38972;SDS011;25333;50.762;4.470;2023-05-10T02:15:32;13.57;;;9.52;;
38972;SDS011;25333;50.762;4.470;2023-05-10T02:17:59;14.35;;;9.50;;
38972;SDS011;25333;50.762;4.470;2023-05-10T02:20:27;16.40;;;9.95;;
38972;SDS011;25333;50.762;4.470;2023-05-10T02:22:55;12.40;;;7.90;;
38972;SDS011;25333;50.762;4.470;2023-05-10T02:25:22;13.15;;;8.10;;
38972;SDS011;25333;50.762;4.470;2023-05-10T02:27:49;14.13;;;9.25;;
38972;SDS011;25333;50.762;4.470;2023-05-10T02:30:16;15.43;;;9.57;;
38972;SDS011;25333;50.762;4.470;2023-05-10T02:32:43;13.47;;;8.00;;
38972;SDS011;25333;50.762;4.470;2023-05-10T02:35:09;14.13;;;8.80;;
38972;SDS011;25333;50.762;4.470;2023-05-10T02:37:36;12.27;;;8.95;;
38972;SDS011;25333;50.762;4.470;2023-05-10T02:40:04;13.10;;;8.53;;
38972;SDS011;25333;50.762;4.470;2023-05-10T02:42:32;15.02;;;9.85;;
38972;SDS011;25333;50.762;4.470;2023-05-10T02:45:01;13.82;;;9.63;;
38972;SDS011;25333;50.762;4.470;2023-05-10T02:47:30;13.25;;;9.25;;
38972;SDS011;25333;50.762;4.470;2023-05-10T02:49:56;17.20;;;11.32;;
38972;SDS011;25333;50.762;4.470;2023-05-10T02:52:27;15.82;;;10.30;;
38972;SDS011;25333;50.762;4.470;2023-05-10T02:54:56;15.60;;;10.55;;
38972;SDS011;25333;50.762;4.470;2023-05-10T02:57:28;16.27;;;10.88;;
38972;SDS011;25333;50.762;4.470;2023-05-10T02:59:57;19.42;;;11.52;;
38972;SDS011;25333;50.762;4.470;2023-05-10T03:02:23;18.23;;;11.05;;
38972;SDS011;25333;50.762;4.470;2023-05-10T03:04:49;19.00;;;12.47;;
38972;SDS011;25333;50.762;4.470;2023-05-10T03:07:15;21.15;;;14.38;;
38972;SDS011;25333;50.762;4.470;2023-05-10T03:09:44;21.58;;;13.60;;
38972;SDS011;25333;50.762;4.470;2023-05-10T03:14:57;21.40;;;13.82;;
38972;SDS011;25333;50.762;4.470;2023-05-10T03:20:22;23.33;;;14.53;;
38972;SDS011;25333;50.762;4.470;2023-05-10T03:22:52;17.33;;;12.27;;
38972;SDS011;25333;50.762;4.470;2023-05-10T03:25:21;19.17;;;12.80;;
38972;SDS011;25333;50.762;4.470;2023-05-10T03:27:49;21.55;;;12.13;;
38972;SDS011;25333;50.762;4.470;2023-05-10T03:30:15;19.17;;;12.90;;
38972;SDS011;25333;50.762;4.470;2023-05-10T03:32:41;19.70;;;13.63;;
38972;SDS011;25333;50.762;4.470;2023-05-10T03:35:11;19.92;;;12.85;;
38972;SDS011;25333;50.762;4.470;2023-05-10T03:37:38;20.85;;;14.23;;
38972;SDS011;25333;50.762;4.470;2023-05-10T03:40:04;21.00;;;14.05;;
38972;SDS011;25333;50.762;4.470;2023-05-10T03:42:32;18.88;;;13.80;;
38972;SDS011;25333;50.762;4.470;2023-05-10T03:44:57;20.00;;;13.53;;
38972;SDS011;25333;50.762;4.470;2023-05-10T03:47:23;17.77;;;13.03;;
38972;SDS011;25333;50.762;4.470;2023-05-10T03:49:48;19.75;;;13.10;;
38972;SDS011;25333;50.762;4.470;2023-05-10T03:52:14;19.17;;;12.07;;
38972;SDS011;25333;50.762;4.470;2023-05-10T03:54:40;18.50;;;12.80;;
38972;SDS011;25333;50.762;4.470;2023-05-10T03:57:06;21.40;;;12.03;;
38972;SDS011;25333;50.762;4.470;2023-05-10T03:59:31;21.08;;;10.80;;
38972;SDS011;25333;50.762;4.470;2023-05-10T04:01:57;21.48;;;12.23;;
38972;SDS011;25333;50.762;4.470;2023-05-10T04:04:23;19.23;;;11.90;;
38972;SDS011;25333;50.762;4.470;2023-05-10T04:06:49;19.13;;;11.55;;
38972;SDS011;25333;50.762;4.470;2023-05-10T04:09:14;18.60;;;11.17;;
38972;SDS011;25333;50.762;4.470;2023-05-10T04:11:41;17.13;;;11.55;;
38972;SDS011;25333;50.762;4.470;2023-05-10T04:14:07;17.60;;;11.57;;
38972;SDS011;25333;50.762;4.470;2023-05-10T04:16:33;16.20;;;9.68;;
38972;SDS011;25333;50.762;4.470;2023-05-10T04:18:58;15.70;;;9.90;;
38972;SDS011;25333;50.762;4.470;2023-05-10T04:21:24;18.88;;;11.68;;
38972;SDS011;25333;50.762;4.470;2023-05-10T04:23:50;19.20;;;11.18;;
38972;SDS011;25333;50.762;4.470;2023-05-10T04:26:16;17.92;;;11.38;;
38972;SDS011;25333;50.762;4.470;2023-05-10T04:28:41;17.43;;;10.43;;
38972;SDS011;25333;50.762;4.470;2023-05-10T04:31:08;14.38;;;10.02;;
38972;SDS011;25333;50.762;4.470;2023-05-10T04:33:35;17.77;;;9.70;;
38972;SDS011;25333;50.762;4.470;2023-05-10T04:36:01;12.75;;;8.60;;
38972;SDS011;25333;50.762;4.470;2023-05-10T04:38:27;12.55;;;8.38;;
38972;SDS011;25333;50.762;4.470;2023-05-10T04:40:53;11.15;;;8.07;;
38972;SDS011;25333;50.762;4.470;2023-05-10T04:43:19;11.93;;;7.30;;
38972;SDS011;25333;50.762;4.470;2023-05-10T04:45:45;10.65;;;6.32;;
38972;SDS011;25333;50.762;4.470;2023-05-10T04:48:11;8.83;;;5.03;;
38972;SDS011;25333;50.762;4.470;2023-05-10T04:50:37;9.43;;;4.85;;
38972;SDS011;25333;50.762;4.470;2023-05-10T04:53:03;6.28;;;3.70;;
38972;SDS011;25333;50.762;4.470;2023-05-10T04:55:29;5.45;;;3.40;;
38972;SDS011;25333;50.762;4.470;2023-05-10T04:57:55;5.50;;;2.80;;
38972;SDS011;25333;50.762;4.470;2023-05-10T05:00:22;5.15;;;2.97;;
38972;SDS011;25333;50.762;4.470;2023-05-10T05:02:48;5.03;;;2.90;;
38972;SDS011;25333;50.762;4.470;2023-05-10T05:05:13;4.20;;;2.70;;
38972;SDS011;25333;50.762;4.470;2023-05-10T05:07:40;4.57;;;1.67;;
38972;SDS011;25333;50.762;4.470;2023-05-10T05:10:06;3.70;;;2.05;;
38972;SDS011;25333;50.762;4.470;2023-05-10T05:12:32;4.15;;;1.90;;
38972;SDS011;25333;50.762;4.470;2023-05-10T05:14:58;4.82;;;1.80;;
38972;SDS011;25333;50.762;4.470;2023-05-10T05:17:24;3.77;;;1.47;;
38972;SDS011;25333;50.762;4.470;2023-05-10T05:19:50;3.80;;;1.50;;
38972;SDS011;25333;50.762;4.470;2023-05-10T05:22:16;5.50;;;1.98;;
38972;SDS011;25333;50.762;4.470;2023-05-10T05:24:41;3.00;;;1.10;;
38972;SDS011;25333;50.762;4.470;2023-05-10T05:27:07;4.15;;;1.13;;
38972;SDS011;25333;50.762;4.470;2023-05-10T05:29:33;2.40;;;1.05;;
38972;SDS011;25333;50.762;4.470;2023-05-10T05:31:58;2.27;;;1.20;;
38972;SDS011;25333;50.762;4.470;2023-05-10T05:34:24;4.32;;;1.77;;
38972;SDS011;25333;50.762;4.470;2023-05-10T05:36:51;3.58;;;1.20;;
38972;SDS011;25333;50.762;4.470;2023-05-10T05:39:16;4.30;;;1.38;;
38972;SDS011;25333;50.762;4.470;2023-05-10T05:41:42;4.07;;;1.10;;
38972;SDS011;25333;50.762;4.470;2023-05-10T05:44:08;2.55;;;1.20;;
38972;SDS011;25333;50.762;4.470;2023-05-10T05:46:34;2.67;;;0.85;;
38972;SDS011;25333;50.762;4.470;2023-05-10T05:49:00;1.73;;;0.90;;
38972;SDS011;25333;50.762;4.470;2023-05-10T05:51:26;3.87;;;1.07;;
38972;SDS011;25333;50.762;4.470;2023-05-10T05:53:51;2.80;;;1.10;;
38972;SDS011;25333;50.762;4.470;2023-05-10T05:56:17;2.72;;;1.08;;
38972;SDS011;25333;50.762;4.470;2023-05-10T05:58:49;1.55;;;0.70;;
38972;SDS011;25333;50.762;4.470;2023-05-10T06:01:17;1.77;;;0.50;;
38972;SDS011;25333;50.762;4.470;2023-05-10T06:03:43;1.60;;;0.75;;
38972;SDS011;25333;50.762;4.470;2023-05-10T06:06:09;1.80;;;0.90;;
38972;SDS011;25333;50.762;4.470;2023-05-10T06:08:34;1.95;;;0.73;;
38972;SDS011;25333;50.762;4.470;2023-05-10T06:11:00;2.53;;;0.67;;
38972;SDS011;25333;50.762;4.470;2023-05-10T06:13:26;2.45;;;0.70;;
38972;SDS011;25333;50.762;4.470;2023-05-10T06:15:57;3.05;;;1.00;;
38972;SDS011;25333;50.762;4.470;2023-05-10T06:18:23;2.35;;;0.80;;
38972;SDS011;25333;50.762;4.470;2023-05-10T06:20:50;2.33;;;1.30;;
38972;SDS011;25333;50.762;4.470;2023-05-10T06:23:16;2.17;;;0.80;;
38972;SDS011;25333;50.762;4.470;2023-05-10T06:25:42;1.45;;;0.90;;
38972;SDS011;25333;50.762;4.470;2023-05-10T06:28:08;2.97;;;1.07;;
38972;SDS011;25333;50.762;4.470;2023-05-10T06:30:35;3.10;;;0.75;;
38972;SDS011;25333;50.762;4.470;2023-05-10T06:33:01;2.03;;;1.02;;
38972;SDS011;25333;50.762;4.470;2023-05-10T06:35:27;2.17;;;1.00;;
38972;SDS011;25333;50.762;4.470;2023-05-10T06:37:53;4.10;;;1.67;;
38972;SDS011;25333;50.762;4.470;2023-05-10T06:40:20;2.40;;;1.00;;
38972;SDS011;25333;50.762;4.470;2023-05-10T06:42:46;2.55;;;1.23;;
38972;SDS011;25333;50.762;4.470;2023-05-10T06:45:13;1.90;;;1.00;;
38972;SDS011;25333;50.762;4.470;2023-05-10T06:47:39;2.42;;;1.23;;
38972;SDS011;25333;50.762;4.470;2023-05-10T06:50:06;2.55;;;1.20;;
38972;SDS011;25333;50.762;4.470;2023-05-10T06:52:36;3.67;;;0.85;;
38972;SDS011;25333;50.762;4.470;2023-05-10T06:55:03;2.50;;;1.07;;
38972;SDS011;25333;50.762;4.470;2023-05-10T06:57:29;2.67;;;1.23;;
38972;SDS011;25333;50.762;4.470;2023-05-10T06:59:55;2.13;;;1.40;;
38972;SDS011;25333;50.762;4.470;2023-05-10T07:02:21;3.05;;;1.70;;
38972;SDS011;25333;50.762;4.470;2023-05-10T07:04:47;2.72;;;1.27;;
38972;SDS011;25333;50.762;4.470;2023-05-10T07:07:13;3.30;;;1.30;;
38972;SDS011;25333;50.762;4.470;2023-05-10T07:09:39;3.20;;;1.73;;
38972;SDS011;25333;50.762;4.470;2023-05-10T07:12:05;3.33;;;1.37;;
38972;SDS011;25333;50.762;4.470;2023-05-10T07:14:31;3.30;;;1.42;;
38972;SDS011;25333;50.762;4.470;2023-05-10T07:17:00;3.17;;;1.48;;
38972;SDS011;25333;50.762;4.470;2023-05-10T07:19:25;3.42;;;1.92;;
38972;SDS011;25333;50.762;4.470;2023-05-10T07:21:51;3.80;;;1.83;;
38972;SDS011;25333;50.762;4.470;2023-05-10T07:24:17;4.85;;;1.52;;
38972;SDS011;25333;50.762;4.470;2023-05-10T07:26:42;3.20;;;1.80;;
38972;SDS011;25333;50.762;4.470;2023-05-10T07:29:08;5.03;;;2.20;;
38972;SDS011;25333;50.762;4.470;2023-05-10T07:31:34;4.10;;;1.63;;
38972;SDS011;25333;50.762;4.470;2023-05-10T07:34:00;3.40;;;1.80;;
38972;SDS011;25333;50.762;4.470;2023-05-10T07:36:26;4.95;;;2.58;;
38972;SDS011;25333;50.762;4.470;2023-05-10T07:38:52;5.43;;;2.85;;
38972;SDS011;25333;50.762;4.470;2023-05-10T07:41:18;4.40;;;2.45;;
38972;SDS011;25333;50.762;4.470;2023-05-10T07:43:44;5.72;;;2.60;;
38972;SDS011;25333;50.762;4.470;2023-05-10T07:46:09;5.43;;;2.70;;
38972;SDS011;25333;50.762;4.470;2023-05-10T07:48:36;5.30;;;3.03;;
38972;SDS011;25333;50.762;4.470;2023-05-10T07:51:02;7.97;;;3.40;;
38972;SDS011;25333;50.762;4.470;2023-05-10T07:53:27;4.03;;;2.00;;
38972;SDS011;25333;50.762;4.470;2023-05-10T07:55:54;4.40;;;2.40;;
38972;SDS011;25333;50.762;4.470;2023-05-10T07:58:23;3.63;;;2.30;;
38972;SDS011;25333;50.762;4.470;2023-05-10T08:00:49;6.20;;;2.55;;
38972;SDS011;25333;50.762;4.470;2023-05-10T08:03:15;5.80;;;3.03;;
38972;SDS011;25333;50.762;4.470;2023-05-10T08:05:40;3.83;;;2.10;;
38972;SDS011;25333;50.762;4.470;2023-05-10T08:08:06;6.60;;;3.10;;
38972;SDS011;25333;50.762;4.470;2023-05-10T08:10:32;5.18;;;2.25;;
38972;SDS011;25333;50.762;4.470;2023-05-10T08:12:58;3.13;;;1.70;;
38972;SDS011;25333;50.762;4.470;2023-05-10T08:15:24;5.03;;;1.85;;
38972;SDS011;25333;50.762;4.470;2023-05-10T08:17:51;3.33;;;1.58;;
38972;SDS011;25333;50.762;4.470;2023-05-10T08:20:16;3.65;;;1.67;;
38972;SDS011;25333;50.762;4.470;2023-05-10T08:22:44;3.40;;;1.25;;
38972;SDS011;25333;50.762;4.470;2023-05-10T08:25:10;4.82;;;1.50;;
38972;SDS011;25333;50.762;4.470;2023-05-10T08:27:36;2.40;;;1.17;;
38972;SDS011;25333;50.762;4.470;2023-05-10T08:30:01;2.93;;;1.30;;
38972;SDS011;25333;50.762;4.470;2023-05-10T08:32:27;5.05;;;1.42;;
38972;SDS011;25333;50.762;4.470;2023-05-10T08:34:53;2.28;;;1.20;;
38972;SDS011;25333;50.762;4.470;2023-05-10T08:37:19;1.88;;;0.90;;
38972;SDS011;25333;50.762;4.470;2023-05-10T08:39:45;3.30;;;1.13;;
38972;SDS011;25333;50.762;4.470;2023-05-10T08:42:12;2.17;;;1.13;;
38972;SDS011;25333;50.762;4.470;2023-05-10T08:44:44;2.03;;;0.90;;
38972;SDS011;25333;50.762;4.470;2023-05-10T08:47:12;1.13;;;0.60;;
38972;SDS011;25333;50.762;4.470;2023-05-10T08:49:41;1.80;;;0.82;;
38972;SDS011;25333;50.762;4.470;2023-05-10T08:52:08;1.58;;;0.70;;
38972;SDS011;25333;50.762;4.470;2023-05-10T08:54:38;2.95;;;0.60;;
38972;SDS011;25333;50.762;4.470;2023-05-10T08:57:03;1.63;;;0.50;;
38972;SDS011;25333;50.762;4.470;2023-05-10T08:59:29;2.03;;;0.73;;
38972;SDS011;25333;50.762;4.470;2023-05-10T09:01:58;2.13;;;0.82;;
38972;SDS011;25333;50.762;4.470;2023-05-10T09:04:24;2.15;;;0.45;;
38972;SDS011;25333;50.762;4.470;2023-05-10T09:06:51;1.58;;;0.90;;
38972;SDS011;25333;50.762;4.470;2023-05-10T09:09:17;1.80;;;0.70;;
38972;SDS011;25333;50.762;4.470;2023-05-10T09:11:43;3.47;;;0.75;;
38972;SDS011;25333;50.762;4.470;2023-05-10T09:14:09;0.98;;;0.57;;
38972;SDS011;25333;50.762;4.470;2023-05-10T09:16:37;2.65;;;0.75;;
38972;SDS011;25333;50.762;4.470;2023-05-10T09:19:03;2.25;;;0.73;;
38972;SDS011;25333;50.762;4.470;2023-05-10T09:21:28;2.33;;;1.00;;
38972;SDS011;25333;50.762;4.470;2023-05-10T09:23:56;2.30;;;1.00;;
38972;SDS011;25333;50.762;4.470;2023-05-10T09:26:22;2.33;;;0.98;;
38972;SDS011;25333;50.762;4.470;2023-05-10T09:31:23;1.40;;;0.60;;
38972;SDS011;25333;50.762;4.470;2023-05-10T09:33:52;1.45;;;0.43;;
38972;SDS011;25333;50.762;4.470;2023-05-10T09:36:18;1.73;;;0.95;;
38972;SDS011;25333;50.762;4.470;2023-05-10T09:41:23;0.80;;;0.40;;
38972;SDS011;25333;50.762;4.470;2023-05-10T09:43:50;2.58;;;0.90;;
38972;SDS011;25333;50.762;4.470;2023-05-10T09:46:21;1.77;;;0.70;;
38972;SDS011;25333;50.762;4.470;2023-05-10T09:48:47;1.35;;;0.73;;
38972;SDS011;25333;50.762;4.470;2023-05-10T09:51:20;1.50;;;0.60;;
38972;SDS011;25333;50.762;4.470;2023-05-10T09:56:38;2.20;;;0.73;;
38972;SDS011;25333;50.762;4.470;2023-05-10T09:59:06;1.17;;;0.50;;
38972;SDS011;25333;50.762;4.470;2023-05-10T10:01:34;1.58;;;0.55;;
38972;SDS011;25333;50.762;4.470;2023-05-10T10:04:09;2.15;;;0.70;;
38972;SDS011;25333;50.762;4.470;2023-05-10T10:06:35;2.63;;;0.70;;
38972;SDS011;25333;50.762;4.470;2023-05-10T10:09:02;1.52;;;0.50;;
38972;SDS011;25333;50.762;4.470;2023-05-10T10:11:28;1.50;;;0.60;;
38972;SDS011;25333;50.762;4.470;2023-05-10T10:13:54;2.17;;;0.70;;
38972;SDS011;25333;50.762;4.470;2023-05-10T10:16:20;4.90;;;0.60;;
38972;SDS011;25333;50.762;4.470;2023-05-10T10:18:46;1.20;;;0.40;;
38972;SDS011;25333;50.762;4.470;2023-05-10T10:21:13;0.95;;;0.50;;
38972;SDS011;25333;50.762;4.470;2023-05-10T10:23:40;0.80;;;0.35;;
38972;SDS011;25333;50.762;4.470;2023-05-10T10:26:05;1.58;;;0.57;;
38972;SDS011;25333;50.762;4.470;2023-05-10T10:28:36;0.88;;;0.30;;
38972;SDS011;25333;50.762;4.470;2023-05-10T10:31:32;1.10;;;0.60;;
38972;SDS011;25333;50.762;4.470;2023-05-10T10:34:00;1.08;;;0.40;;
38972;SDS011;25333;50.762;4.470;2023-05-10T10:36:41;2.63;;;0.43;;
38972;SDS011;25333;50.762;4.470;2023-05-10T10:39:11;0.85;;;0.30;;
38972;SDS011;25333;50.762;4.470;2023-05-10T10:41:48;1.67;;;0.57;;
38972;SDS011;25333;50.762;4.470;2023-05-10T10:49:52;1.95;;;0.88;;
38972;SDS011;25333;50.762;4.470;2023-05-10T10:52:31;2.13;;;0.70;;
38972;SDS011;25333;50.762;4.470;2023-05-10T10:55:09;2.53;;;1.17;;
38972;SDS011;25333;50.762;4.470;2023-05-10T11:08:14;2.13;;;1.10;;
38972;SDS011;25333;50.762;4.470;2023-05-10T11:15:56;3.47;;;1.38;;
38972;SDS011;25333;50.762;4.470;2023-05-10T11:18:24;2.60;;;1.30;;
38972;SDS011;25333;50.762;4.470;2023-05-10T11:20:51;2.30;;;1.10;;
38972;SDS011;25333;50.762;4.470;2023-05-10T11:23:17;2.38;;;1.30;;
38972;SDS011;25333;50.762;4.470;2023-05-10T11:25:45;2.90;;;1.83;;
38972;SDS011;25333;50.762;4.470;2023-05-10T11:28:11;3.15;;;2.13;;
38972;SDS011;25333;50.762;4.470;2023-05-10T11:30:38;3.13;;;1.55;;
38972;SDS011;25333;50.762;4.470;2023-05-10T11:33:05;3.58;;;2.00;;
38972;SDS011;25333;50.762;4.470;2023-05-10T11:35:32;2.63;;;1.75;;
38972;SDS011;25333;50.762;4.470;2023-05-10T11:38:09;3.30;;;2.10;;
38972;SDS011;25333;50.762;4.470;2023-05-10T11:40:36;2.53;;;1.80;;
38972;SDS011;25333;50.762;4.470;2023-05-10T11:43:02;3.53;;;1.70;;
38972;SDS011;25333;50.762;4.470;2023-05-10T11:45:29;3.15;;;2.42;;
38972;SDS011;25333;50.762;4.470;2023-05-10T11:47:58;3.08;;;2.42;;
38972;SDS011;25333;50.762;4.470;2023-05-10T11:50:24;2.60;;;2.03;;
38972;SDS011;25333;50.762;4.470;2023-05-10T11:52:57;3.83;;;2.10;;
38972;SDS011;25333;50.762;4.470;2023-05-10T11:55:23;3.27;;;1.80;;
38972;SDS011;25333;50.762;4.470;2023-05-10T11:57:53;2.72;;;1.42;;
38972;SDS011;25333;50.762;4.470;2023-05-10T12:00:19;2.80;;;1.88;;
38972;SDS011;25333;50.762;4.470;2023-05-10T12:02:46;2.05;;;1.30;;
38972;SDS011;25333;50.762;4.470;2023-05-10T12:05:13;1.90;;;1.20;;
38972;SDS011;25333;50.762;4.470;2023-05-10T12:07:39;3.33;;;1.20;;
38972;SDS011;25333;50.762;4.470;2023-05-10T12:15:18;3.17;;;1.80;;
38972;SDS011;25333;50.762;4.470;2023-05-10T12:17:45;2.50;;;1.33;;
38972;SDS011;25333;50.762;4.470;2023-05-10T12:20:14;2.47;;;1.37;;
38972;SDS011;25333;50.762;4.470;2023-05-10T12:22:54;2.33;;;1.33;;
38972;SDS011;25333;50.762;4.470;2023-05-10T12:25:21;2.88;;;1.30;;
38972;SDS011;25333;50.762;4.470;2023-05-10T12:27:54;2.20;;;1.10;;
38972;SDS011;25333;50.762;4.470;2023-05-10T12:30:41;2.60;;;1.40;;
38972;SDS011;25333;50.762;4.470;2023-05-10T12:33:13;2.65;;;1.80;;
38972;SDS011;25333;50.762;4.470;2023-05-10T12:35:45;2.43;;;1.50;;
38972;SDS011;25333;50.762;4.470;2023-05-10T12:38:29;2.53;;;1.50;;
38972;SDS011;25333;50.762;4.470;2023-05-10T12:41:00;2.25;;;1.23;;
38972;SDS011;25333;50.762;4.470;2023-05-10T12:43:27;4.60;;;1.60;;
38972;SDS011;25333;50.762;4.470;2023-05-10T12:45:53;2.50;;;1.45;;
38972;SDS011;25333;50.762;4.470;2023-05-10T12:48:21;2.63;;;1.23;;
38972;SDS011;25333;50.762;4.470;2023-05-10T12:50:47;1.88;;;0.93;;
38972;SDS011;25333;50.762;4.470;2023-05-10T12:53:16;2.43;;;1.20;;
38972;SDS011;25333;50.762;4.470;2023-05-10T12:55:42;2.83;;;1.40;;
38972;SDS011;25333;50.762;4.470;2023-05-10T12:58:08;3.27;;;1.40;;
38972;SDS011;25333;50.762;4.470;2023-05-10T13:00:34;2.78;;;1.60;;
38972;SDS011;25333;50.762;4.470;2023-05-10T13:02:59;2.33;;;1.53;;
38972;SDS011;25333;50.762;4.470;2023-05-10T13:05:25;2.50;;;1.05;;
38972;SDS011;25333;50.762;4.470;2023-05-10T13:07:51;2.45;;;1.10;;
38972;SDS011;25333;50.762;4.470;2023-05-10T13:10:16;2.20;;;1.53;;
38972;SDS011;25333;50.762;4.470;2023-05-10T13:12:42;2.10;;;1.20;;
38972;SDS011;25333;50.762;4.470;2023-05-10T13:15:08;5.13;;;1.45;;
38972;SDS011;25333;50.762;4.470;2023-05-10T13:17:34;3.47;;;1.98;;
38972;SDS011;25333;50.762;4.470;2023-05-10T13:19:59;2.33;;;1.40;;
38972;SDS011;25333;50.762;4.470;2023-05-10T13:22:25;2.63;;;1.70;;
38972;SDS011;25333;50.762;4.470;2023-05-10T13:24:51;3.05;;;1.65;;
38972;SDS011;25333;50.762;4.470;2023-05-10T13:27:16;2.50;;;1.70;;
38972;SDS011;25333;50.762;4.470;2023-05-10T13:29:42;2.30;;;1.33;;
38972;SDS011;25333;50.762;4.470;2023-05-10T13:32:08;3.05;;;1.92;;
38972;SDS011;25333;50.762;4.470;2023-05-10T13:34:33;2.53;;;1.40;;
38972;SDS011;25333;50.762;4.470;2023-05-10T13:37:00;2.80;;;1.45;;
38972;SDS011;25333;50.762;4.470;2023-05-10T13:39:26;3.25;;;1.38;;
38972;SDS011;25333;50.762;4.470;2023-05-10T13:41:52;2.08;;;1.20;;
38972;SDS011;25333;50.762;4.470;2023-05-10T13:44:18;2.53;;;1.00;;
38972;SDS011;25333;50.762;4.470;2023-05-10T13:46:45;3.05;;;1.70;;
38972;SDS011;25333;50.762;4.470;2023-05-10T13:49:11;2.95;;;1.75;;
38972;SDS011;25333;50.762;4.470;2023-05-10T13:51:37;4.73;;;1.87;;
38972;SDS011;25333;50.762;4.470;2023-05-10T13:54:02;3.00;;;1.65;;
38972;SDS011;25333;50.762;4.470;2023-05-10T13:56:28;2.90;;;1.70;;
38972;SDS011;25333;50.762;4.470;2023-05-10T13:58:54;2.60;;;1.60;;
38972;SDS011;25333;50.762;4.470;2023-05-10T14:01:20;3.28;;;1.73;;
38972;SDS011;25333;50.762;4.470;2023-05-10T14:03:46;4.60;;;1.67;;
38972;SDS011;25333;50.762;4.470;2023-05-10T14:06:13;4.00;;;1.63;;
38972;SDS011;25333;50.762;4.470;2023-05-10T14:08:38;4.80;;;2.40;;
38972;SDS011;25333;50.762;4.470;2023-05-10T14:11:04;2.50;;;1.52;;
38972;SDS011;25333;50.762;4.470;2023-05-10T14:13:30;2.80;;;1.40;;
38972;SDS011;25333;50.762;4.470;2023-05-10T14:15:55;4.00;;;2.22;;
38972;SDS011;25333;50.762;4.470;2023-05-10T14:18:21;6.20;;;2.10;;
38972;SDS011;25333;50.762;4.470;2023-05-10T14:20:47;2.80;;;1.97;;
38972;SDS011;25333;50.762;4.470;2023-05-10T14:23:12;3.60;;;2.65;;
38972;SDS011;25333;50.762;4.470;2023-05-10T14:25:41;3.97;;;2.63;;
38972;SDS011;25333;50.762;4.470;2023-05-10T14:28:07;4.65;;;2.85;;
38972;SDS011;25333;50.762;4.470;2023-05-10T14:30:32;5.18;;;3.50;;
38972;SDS011;25333;50.762;4.470;2023-05-10T14:32:59;6.50;;;3.78;;
38972;SDS011;25333;50.762;4.470;2023-05-10T14:35:26;6.22;;;3.63;;
38972;SDS011;25333;50.762;4.470;2023-05-10T14:37:52;6.93;;;4.32;;
38972;SDS011;25333;50.762;4.470;2023-05-10T14:40:18;5.40;;;4.45;;
38972;SDS011;25333;50.762;4.470;2023-05-10T14:42:44;7.40;;;4.22;;
38972;SDS011;25333;50.762;4.470;2023-05-10T14:45:10;6.93;;;4.05;;
38972;SDS011;25333;50.762;4.470;2023-05-10T14:47:37;6.43;;;3.43;;
38972;SDS011;25333;50.762;4.470;2023-05-10T14:50:02;6.38;;;3.92;;
38972;SDS011;25333;50.762;4.470;2023-05-10T14:52:28;6.53;;;4.20;;
38972;SDS011;25333;50.762;4.470;2023-05-10T14:54:54;6.88;;;3.92;;
38972;SDS011;25333;50.762;4.470;2023-05-10T14:57:20;6.33;;;3.80;;
38972;SDS011;25333;50.762;4.470;2023-05-10T14:59:45;7.23;;;4.37;;
38972;SDS011;25333;50.762;4.470;2023-05-10T15:02:11;8.27;;;4.80;;
38972;SDS011;25333;50.762;4.470;2023-05-10T15:04:37;6.32;;;4.28;;
38972;SDS011;25333;50.762;4.470;2023-05-10T15:07:03;8.63;;;5.07;;
38972;SDS011;25333;50.762;4.470;2023-05-10T15:09:29;6.60;;;4.30;;
38972;SDS011;25333;50.762;4.470;2023-05-10T15:11:54;5.90;;;3.70;;
38972;SDS011;25333;50.762;4.470;2023-05-10T15:14:21;7.50;;;5.37;;
38972;SDS011;25333;50.762;4.470;2023-05-10T15:16:47;10.75;;;6.25;;
38972;SDS011;25333;50.762;4.470;2023-05-10T15:19:13;9.20;;;6.30;;
38972;SDS011;25333;50.762;4.470;2023-05-10T15:21:39;10.23;;;7.35;;
38972;SDS011;25333;50.762;4.470;2023-05-10T15:24:07;10.30;;;7.28;;
38972;SDS011;25333;50.762;4.470;2023-05-10T15:26:33;10.43;;;7.40;;
38972;SDS011;25333;50.762;4.470;2023-05-10T15:28:59;13.60;;;8.38;;